This demonstration page uses our WeatherBlox Daily Observations layout. Learn more.

39.01783, -85.05884

Hourly Observations for June 30, 2019

Temp ( °F °C ) Dew Point ( °F °C ) Humidity (%) Winds ( mph kmh ) Pressure ( in mb ) Visibility ( mi km ) Precip ( " mm )
12:52 am 00:52 Partly Cloudy 77 25 68 20 74 74 W 5 7 30.03 1017 10 16.09344 0 0
1:52 am 01:52 Partly Cloudy 76 24.4 67 19.4 74 74 SW 3 6 30.03 1017 10 16.09344 0 0
2:52 am 02:52 Mostly Clear 75 23.9 68 20 79 79 WSW 3 6 30 1016 10 16.09344 0 0
3:52 am 03:52 Clear 74 23.3 68 20 82 82 WSW 5 7 30 1016 10 16.09344 0 0
4:52 am 04:52 Partly Cloudy 74 23.3 68 20 82 82 WSW 5 7 30 1016 10 16.09344 0 0
5:52 am 05:52 Mostly Cloudy 74 23.3 68 20 82 82 W 9 15 30 1016 10 16.09344 0 0
6:52 am 06:52 Partly Cloudy 74 23.3 68 20 82 82 WSW 6 9 30 1016 8 12.874752 0 0
7:52 am 07:52 Partly Cloudy 77 25 69 20.6 77 77 W 7 11 30.03 1017 9 14.484096 0 0
8:52 am 08:52 Partly Cloudy 79 26.1 69 20.6 72 72 W 9 15 30.03 1017 10 16.09344 0 0
9:52 am 09:52 Partly Cloudy 82 27.8 69 20.6 65 65 NW 6 9 30.03 1017 10 16.09344 0 0
10:52 am 10:52 Mostly Sunny 84 28.9 70 21.1 63 63 VRB 6 9 30 1016 10 16.09344 0 0
11:52 am 11:52 Partly Cloudy 86 30 71 21.7 61 61 NW 7 11 30 1016 10 16.09344 0 0
12:52 pm 12:52 Partly Cloudy 86 30 70 21.1 59 59 N 8 13 30 1016 10 16.09344 0 0
2:52 pm 14:52 Partly Cloudy 89 31.7 69 20.6 52 52 N 8 13 29.97 1015 10 16.09344 0 0
3:52 pm 15:52 Partly Cloudy 90 32.2 66 18.9 45 45 N 9 15 29.94 1014 10 16.09344 0 0
4:52 pm 16:52 Partly Cloudy 90 32.2 66 18.9 45 45 N 8 13 29.91 1013 10 16.09344 0 0
5:52 pm 17:52 Partly Cloudy 90 32.2 65 18.3 44 44 N 10 17 29.91 1013 10 16.09344 0 0
6:52 pm 18:52 Partly Cloudy 89 31.7 65 18.3 45 45 NNE 13 20 29.91 1013 10 16.09344 0 0
7:52 pm 19:52 Partly Cloudy 87 30.6 61 16.1 42 42 N 9 15 29.91 1013 10 16.09344 0 0
8:52 pm 20:52 Partly Cloudy 84 28.9 59 15 43 43 N 5 7 29.91 1013 10 16.09344 0 0
9:52 pm 21:52 Partly Cloudy 74 23.3 63 17.2 69 69 SSW 3 6 29.94 1014 10 16.09344 0 0
10:52 pm 22:52 Cloudy 77 25 69 20.6 77 77 WSW 9 15 29.97 1015 10 16.09344 0 0
11:52 pm 23:52 Cloudy 74 23.3 69 20.6 85 85 WNW 9 15 30 1016 10 16.09344 0 0

Powered by AerisWeather